Time;durP1;ratioP1;P1;durP2;ratioP2;P2;SDS_P1;SDS_P2;PMS_P1;PMS_P2;Temp;Humidity;BMP_temperature;BMP_pressure;BME280_temperature;BME280_humidity;BME280_pressure;Samples;Min_cycle;Max_cycle;Signal;HPM_P1;HPM_P2
2022/05/25 00:01:20;;;;;;;5.45;2.05;;;;;;;13.08;70.46;98481.66;4977998;28;20117;-82
2022/05/25 00:03:46;;;;;;;2.60;2.13;;;;;;;12.96;71.00;98471.19;5007620;28;20120;-81
2022/05/25 00:06:11;;;;;;;3.03;1.90;;;;;;;13.01;70.97;98481.91;5006667;28;20030;-82
2022/05/25 00:08:40;;;;;;;5.43;2.00;;;;;;;13.06;70.27;98476.53;5023482;28;20045;-81
2022/05/25 00:11:05;;;;;;;4.68;2.00;;;;;;;12.87;70.89;98472.81;5010512;28;20028;-82
2022/05/25 00:13:30;;;;;;;5.00;2.05;;;;;;;12.98;70.95;98474.41;5007969;28;20033;-82
2022/05/25 00:15:56;;;;;;;2.05;1.85;;;;;;;13.05;70.37;98474.94;5008067;28;20057;-81
2022/05/25 00:18:21;;;;;;;2.00;1.90;;;;;;;13.07;70.51;98485.38;4987121;28;20201;-81
2022/05/25 00:20:47;;;;;;;6.93;2.50;;;;;;;13.13;69.86;98490.47;5012248;28;20512;-81
2022/05/25 00:23:12;;;;;;;6.20;2.03;;;;;;;12.93;70.75;98493.16;5002227;28;20034;-81
2022/05/25 00:25:39;;;;;;;2.17;1.95;;;;;;;12.92;70.77;98485.41;4974616;28;20116;-81
2022/05/25 00:28:08;;;;;;;2.05;1.88;;;;;;;12.85;70.91;98487.56;5005381;28;20025;-81
2022/05/25 00:30:33;;;;;;;3.35;1.77;;;;;;;12.80;70.98;98488.38;5012416;28;20083;-81
2022/05/25 00:33:00;;;;;;;1.92;1.63;;;;;;;12.82;70.60;98483.53;4974718;28;20030;-81
2022/05/25 00:35:27;;;;;;;1.55;1.45;;;;;;;12.82;70.47;98480.09;5008245;28;20030;-81
2022/05/25 00:37:52;;;;;;;1.95;1.38;;;;;;;12.77;70.39;98471.00;5001936;28;20060;-82
2022/05/25 00:40:29;;;;;;;2.80;1.83;;;;;;;12.70;70.13;98470.47;5003705;28;20484;-81
2022/05/25 00:42:54;;;;;;;2.63;1.60;;;;;;;12.75;70.90;98469.66;5013609;28;20028;-81
2022/05/25 00:45:20;;;;;;;7.60;1.80;;;;;;;12.73;70.60;98485.19;4986194;28;20034;-81
2022/05/25 00:47:49;;;;;;;2.17;1.75;;;;;;;12.66;70.88;98479.31;5007322;28;20088;-82
2022/05/25 00:50:17;;;;;;;3.63;1.90;;;;;;;12.70;71.13;98483.84;5019078;28;21199;-81
2022/05/25 00:52:45;;;;;;;3.67;2.00;;;;;;;12.72;71.43;98483.56;4992967;28;20412;-81
2022/05/25 00:55:19;;;;;;;5.57;2.80;;;;;;;12.68;71.33;98477.16;5009092;28;20132;-81
2022/05/25 00:57:47;;;;;;;4.18;2.50;;;;;;;12.62;71.64;98488.97;5005704;28;20391;-81
2022/05/25 01:00:22;;;;;;;7.57;2.53;;;;;;;12.75;71.09;98483.81;5006992;28;20034;-81
2022/05/25 01:02:51;;;;;;;3.42;2.13;;;;;;;12.88;70.90;98493.19;4976808;28;20030;-81
2022/05/25 01:05:22;;;;;;;3.28;2.30;;;;;;;12.75;70.95;98493.75;5007710;28;20044;-81
2022/05/25 01:08:06;;;;;;;6.93;2.33;;;;;;;12.84;71.23;98496.69;5010192;28;20489;-81
2022/05/25 01:11:21;;;;;;;2.47;2.28;;;;;;;12.63;71.67;98493.22;5025200;28;20041;-81
2022/05/25 01:14:15;;;;;;;3.75;2.00;;;;;;;12.75;71.07;98497.22;4984103;28;20026;-81
2022/05/25 01:17:10;;;;;;;2.65;2.38;;;;;;;12.77;70.71;98505.00;4987927;28;20528;-80
2022/05/25 01:19:41;;;;;;;5.13;2.03;;;;;;;12.70;70.87;98502.59;4974578;28;20041;-81
2022/05/25 01:22:44;;;;;;;2.90;2.47;;;;;;;12.65;71.17;98507.16;5023573;28;20083;-81
2022/05/25 01:26:07;;;;;;;3.33;2.28;;;;;;;12.62;71.23;98505.03;5008981;28;20413;-81
2022/05/25 01:28:55;;;;;;;3.45;2.20;;;;;;;12.60;71.23;98512.53;4987739;28;20413;-81
2022/05/25 01:31:33;;;;;;;2.45;2.25;;;;;;;12.52;71.50;98519.22;5006558;28;20057;-81
2022/05/25 01:34:26;;;;;;;2.63;2.42;;;;;;;12.34;71.79;98502.91;5012012;28;20049;-81
2022/05/25 01:37:08;;;;;;;2.58;1.98;;;;;;;12.50;71.57;98520.53;5004838;28;20525;-81
2022/05/25 01:39:40;;;;;;;2.08;1.83;;;;;;;12.46;71.48;98514.13;5009975;28;20026;-81
2022/05/25 01:42:21;;;;;;;3.50;2.10;;;;;;;12.48;71.42;98528.03;5007154;28;20022;-81
2022/05/25 01:44:51;;;;;;;3.47;2.45;;;;;;;12.46;71.49;98530.19;5004037;28;20477;-81
2022/05/25 01:47:19;;;;;;;5.82;2.08;;;;;;;12.48;71.67;98531.53;5002943;28;20352;-81
2022/05/25 01:50:07;;;;;;;5.43;2.28;;;;;;;12.37;71.87;98527.25;5003975;28;20096;-81
2022/05/25 01:52:37;;;;;;;3.47;1.70;;;;;;;12.36;71.58;98522.16;5011479;28;20038;-81
2022/05/25 01:55:07;;;;;;;2.35;2.15;;;;;;;12.29;72.17;98524.31;5009792;28;20532;-81
2022/05/25 01:57:37;;;;;;;2.17;1.88;;;;;;;12.29;72.15;98524.31;5006955;28;20033;-81
2022/05/25 02:00:05;;;;;;;2.05;1.80;;;;;;;12.21;72.21;98519.50;5003627;28;20034;-80
2022/05/25 02:05:17;;;;;;;7.15;2.58;;;;;;;12.12;72.50;98518.41;5007574;28;20088;-81
2022/05/25 02:08:11;;;;;;;7.75;2.47;;;;;;;12.15;72.35;98517.84;4988391;28;20053;-81
2022/05/25 02:11:01;;;;;;;8.43;2.63;;;;;;;12.16;72.00;98522.97;5006568;28;20132;-81
2022/05/25 02:14:01;;;;;;;4.60;2.05;;;;;;;12.14;72.43;98529.66;5007684;28;20108;-82
2022/05/25 02:16:36;;;;;;;2.63;2.10;;;;;;;12.18;71.74;98523.50;5002621;28;20041;-82
2022/05/25 02:19:11;;;;;;;2.78;2.15;;;;;;;12.05;72.73;98510.66;5026594;28;20017;-81
2022/05/25 02:21:49;;;;;;;4.40;2.50;;;;;;;12.10;72.28;98523.22;5020827;28;20117;-81
2022/05/25 02:24:24;;;;;;;6.90;2.42;;;;;;;12.15;72.59;98528.56;5018081;28;20026;-81
2022/05/25 02:27:01;;;;;;;2.65;2.10;;;;;;;12.14;72.93;98532.31;5008628;28;20058;-82
2022/05/25 02:29:34;;;;;;;2.55;2.30;;;;;;;12.13;72.28;98531.50;5002131;28;20044;-82
2022/05/25 02:32:08;;;;;;;5.85;2.17;;;;;;;12.17;72.42;98540.59;5005069;28;20484;-82
2022/05/25 02:34:34;;;;;;;4.28;2.30;;;;;;;12.22;72.68;98542.50;5004140;28;20025;-82
2022/05/25 02:37:00;;;;;;;2.40;1.95;;;;;;;12.24;72.74;98549.19;5003678;28;20120;-82
2022/05/25 02:39:25;;;;;;;9.52;2.10;;;;;;;12.26;73.08;98556.94;5019384;28;20509;-82
2022/05/25 02:41:54;;;;;;;2.40;2.00;;;;;;;12.29;73.11;98551.06;4990814;28;20149;-82
2022/05/25 02:44:19;;;;;;;2.67;1.90;;;;;;;12.34;73.51;98559.88;5020470;28;20034;-82
2022/05/25 02:46:44;;;;;;;2.97;1.80;;;;;;;12.29;73.50;98538.50;5004187;28;20465;-82
2022/05/25 02:49:10;;;;;;;3.13;2.28;;;;;;;12.32;73.57;98543.28;4994191;28;20034;-82
2022/05/25 02:51:36;;;;;;;12.25;2.67;;;;;;;12.35;73.96;98555.34;4989784;28;20144;-82
2022/05/25 02:54:01;;;;;;;3.85;1.85;;;;;;;12.37;73.58;98561.22;5025475;28;20033;-82
2022/05/25 02:56:27;;;;;;;2.75;2.10;;;;;;;12.36;73.29;98567.66;5005108;28;20030;-82
2022/05/25 02:58:52;;;;;;;8.30;2.78;;;;;;;12.27;73.59;98555.88;4986936;28;20560;-82
2022/05/25 03:01:18;;;;;;;4.47;1.92;;;;;;;12.26;73.04;98556.94;4979577;28;20037;-82
2022/05/25 03:03:43;;;;;;;4.55;2.22;;;;;;;12.27;73.23;98574.63;5005896;28;20054;-82
2022/05/25 03:06:09;;;;;;;2.22;1.83;;;;;;;12.14;73.17;98551.03;4996925;28;20038;-82
2022/05/25 03:08:35;;;;;;;6.35;2.00;;;;;;;12.22;73.49;98571.91;5011859;28;20038;-82
2022/05/25 03:11:02;;;;;;;4.60;2.33;;;;;;;12.10;73.50;98566.03;4996087;28;20018;-81
2022/05/25 03:13:28;;;;;;;2.50;2.28;;;;;;;12.13;73.68;98576.19;5025355;28;20030;-82
2022/05/25 03:15:57;;;;;;;2.35;2.13;;;;;;;12.24;73.23;98583.16;4996321;28;20038;-82
2022/05/25 03:18:22;;;;;;;6.03;2.35;;;;;;;12.12;73.05;98575.41;5025881;28;20393;-82
2022/05/25 03:20:49;;;;;;;3.17;2.40;;;;;;;12.25;72.97;98571.41;5003412;28;20038;-82
2022/05/25 03:23:17;;;;;;;4.03;2.90;;;;;;;12.07;73.44;98575.38;4997637;28;20080;-82
2022/05/25 03:25:42;;;;;;;3.20;2.90;;;;;;;12.02;73.43;98575.38;4983048;28;20485;-82
2022/05/25 03:28:08;;;;;;;2.55;2.22;;;;;;;12.19;73.68;98585.84;5005196;28;20060;-81
2022/05/25 03:30:33;;;;;;;7.18;2.47;;;;;;;12.06;73.41;98591.72;5017955;28;20030;-82
2022/05/25 03:32:58;;;;;;;3.10;2.00;;;;;;;12.02;74.07;98592.22;5006724;28;20026;-82
2022/05/25 03:35:24;;;;;;;5.00;2.28;;;;;;;12.07;73.38;98582.59;4991528;28;20037;-82
2022/05/25 03:37:49;;;;;;;3.45;2.30;;;;;;;12.10;74.05;98598.91;5011644;28;20030;-82
2022/05/25 03:40:15;;;;;;;4.38;2.25;;;;;;;12.08;73.87;98600.28;5010956;28;20037;-82
2022/05/25 03:42:42;;;;;;;2.63;2.38;;;;;;;12.04;73.77;98597.28;5007676;28;20025;-82
2022/05/25 03:45:12;;;;;;;2.55;2.35;;;;;;;11.97;74.47;98589.53;5005317;28;20394;-82
2022/05/25 03:47:38;;;;;;;3.50;2.55;;;;;;;11.92;74.71;98594.06;5009229;28;20124;-82
2022/05/25 03:50:03;;;;;;;4.68;2.22;;;;;;;11.94;74.63;98598.09;5008656;28;20117;-82
2022/05/25 03:52:28;;;;;;;3.13;2.65;;;;;;;11.82;74.63;98581.47;5006155;28;20057;-82
2022/05/25 03:54:54;;;;;;;6.70;2.47;;;;;;;11.85;74.51;98602.34;5009141;28;20381;-82
2022/05/25 03:57:19;;;;;;;5.78;2.90;;;;;;;11.88;74.25;98595.66;4988990;28;20034;-82
2022/05/25 03:59:46;;;;;;;3.83;2.65;;;;;;;11.95;73.88;98605.03;5007092;28;20065;-83
2022/05/25 04:02:12;;;;;;;3.30;2.78;;;;;;;11.97;74.03;98604.75;5007522;28;20052;-82
2022/05/25 04:04:37;;;;;;;4.97;3.53;;;;;;;11.81;74.11;98603.94;4993445;28;20061;-82
2022/05/25 04:07:03;;;;;;;5.45;2.75;;;;;;;11.85;74.77;98607.69;5009106;28;20060;-81
2022/05/25 04:09:29;;;;;;;5.05;2.88;;;;;;;11.89;74.78;98602.59;5005770;28;20051;-81
2022/05/25 04:11:54;;;;;;;4.32;2.47;;;;;;;11.78;74.49;98601.78;5012094;28;20026;-81
2022/05/25 04:14:20;;;;;;;3.20;2.90;;;;;;;11.85;74.50;98607.69;5005055;28;20026;-81
2022/05/25 04:16:46;;;;;;;3.65;2.42;;;;;;;11.85;74.79;98601.53;4987885;28;20030;-81
2022/05/25 04:19:11;;;;;;;3.78;2.47;;;;;;;12.14;73.86;98613.41;5011559;28;20033;-82
2022/05/25 04:21:37;;;;;;;4.65;2.83;;;;;;;12.12;73.94;98622.75;5027880;28;20033;-82
2022/05/25 04:24:02;;;;;;;6.97;2.70;;;;;;;12.09;73.70;98620.59;4992298;28;20061;-82
2022/05/25 04:26:30;;;;;;;3.92;2.97;;;;;;;12.03;74.20;98612.53;4991416;28;20033;-81
2022/05/25 04:28:56;;;;;;;3.65;2.28;;;;;;;11.98;74.98;98620.56;5012622;28;20115;-82
2022/05/25 04:31:21;;;;;;;5.07;2.63;;;;;;;12.00;74.75;98618.44;5006972;28;20021;-81
2022/05/25 04:33:46;;;;;;;7.53;2.88;;;;;;;12.06;74.68;98618.47;5000212;28;20038;-82
2022/05/25 04:36:12;;;;;;;6.78;2.58;;;;;;;12.15;74.76;98616.84;5005143;28;20112;-82
2022/05/25 04:38:37;;;;;;;5.55;2.47;;;;;;;12.18;74.31;98619.00;5009279;28;20503;-82
2022/05/25 04:41:03;;;;;;;4.25;2.08;;;;;;;12.19;74.43;98617.97;4991204;28;20035;-82
2022/05/25 04:43:29;;;;;;;6.80;2.65;;;;;;;12.31;74.39;98623.84;5008119;28;20026;-82
2022/05/25 04:45:54;;;;;;;3.30;2.55;;;;;;;12.40;74.39;98625.75;5015913;28;20037;-82
2022/05/25 04:48:23;;;;;;;4.97;2.60;;;;;;;12.42;74.07;98628.16;4994929;28;20037;-82
2022/05/25 04:50:50;;;;;;;4.80;2.72;;;;;;;12.65;73.33;98624.97;5007143;28;20117;-82
2022/05/25 04:53:18;;;;;;;2.53;2.33;;;;;;;12.64;73.66;98618.81;5013066;28;20037;-82
2022/05/25 04:58:33;;;;;;;2.72;2.40;;;;;;;12.87;73.21;98620.16;5011133;28;20129;-82
2022/05/25 05:00:58;;;;;;;3.63;2.92;;;;;;;12.99;73.10;98631.41;5003653;28;20036;-82
2022/05/25 05:03:25;;;;;;;4.88;2.83;;;;;;;12.99;73.02;98636.78;5002984;28;20489;-82
2022/05/25 05:05:51;;;;;;;3.28;2.78;;;;;;;13.04;72.91;98636.75;5008091;28;20068;-82
2022/05/25 05:08:16;;;;;;;7.95;2.97;;;;;;;13.15;72.83;98616.94;5022116;28;20045;-82
2022/05/25 05:10:42;;;;;;;5.25;2.63;;;;;;;12.99;73.21;98611.84;5010810;28;20117;-82
2022/05/25 05:13:07;;;;;;;3.10;2.90;;;;;;;13.11;73.70;98636.50;5016361;28;20041;-82
2022/05/25 05:15:38;;;;;;;5.60;2.80;;;;;;;13.14;73.54;98639.47;5009067;28;20045;-82
2022/05/25 05:18:04;;;;;;;4.35;2.95;;;;;;;13.12;74.31;98624.72;5023784;28;20049;-82
2022/05/25 05:20:30;;;;;;;3.17;2.47;;;;;;;13.35;73.94;98638.34;5006130;28;20442;-82
2022/05/25 05:22:55;;;;;;;5.28;2.78;;;;;;;13.24;74.48;98644.81;5004950;28;20072;-82
2022/05/25 05:25:21;;;;;;;5.30;2.53;;;;;;;13.20;74.69;98630.34;5008736;28;20041;-82
2022/05/25 05:27:46;;;;;;;2.88;2.65;;;;;;;13.31;74.95;98644.53;5015098;28;20029;-82
2022/05/25 05:30:17;;;;;;;4.70;2.55;;;;;;;13.32;74.90;98640.78;5010285;28;20036;-82
2022/05/25 05:32:42;;;;;;;3.47;2.28;;;;;;;13.42;75.08;98646.13;5023061;28;20024;-82
2022/05/25 05:35:09;;;;;;;5.00;2.83;;;;;;;13.53;74.03;98637.78;4991820;28;20034;-82
2022/05/25 05:37:41;;;;;;;9.05;3.63;;;;;;;13.74;74.06;98645.78;5003030;28;20044;-82
2022/05/25 05:40:09;;;;;;;6.10;3.65;;;;;;;13.88;73.87;98652.94;5010146;28;20021;-82
2022/05/25 05:42:40;;;;;;;8.63;3.08;;;;;;;13.91;74.24;98647.03;4999561;28;20033;-82
2022/05/25 05:45:14;;;;;;;3.95;2.90;;;;;;;14.08;73.66;98658.25;4992312;28;20066;-82
2022/05/25 05:47:50;;;;;;;7.75;3.13;;;;;;;13.99;74.18;98649.16;5009750;28;20044;-82
2022/05/25 05:50:17;;;;;;;8.48;2.90;;;;;;;14.09;73.99;98659.03;4991527;28;20034;-82
2022/05/25 05:52:42;;;;;;;5.10;3.00;;;;;;;14.12;73.96;98658.47;4992074;28;20066;-82
2022/05/25 05:55:08;;;;;;;6.18;2.92;;;;;;;14.17;73.29;98661.16;5008857;28;20041;-82
2022/05/25 05:57:37;;;;;;;7.85;4.05;;;;;;;14.27;73.50;98671.81;4988316;28;20517;-82
2022/05/25 06:00:05;;;;;;;3.05;2.83;;;;;;;14.25;73.13;98661.38;5032208;28;20108;-82
2022/05/25 06:02:30;;;;;;;7.40;4.68;;;;;;;14.33;72.76;98668.06;5015115;28;20040;-82
2022/05/25 06:04:56;;;;;;;3.17;2.30;;;;;;;14.36;72.04;98669.41;5016014;28;20034;-82
2022/05/25 06:07:21;;;;;;;6.15;3.03;;;;;;;14.43;72.08;98675.28;5026734;28;20041;-81
2022/05/25 06:09:46;;;;;;;4.40;2.80;;;;;;;14.42;71.78;98665.59;5010285;28;20072;-82
2022/05/25 06:12:14;;;;;;;7.25;3.40;;;;;;;14.62;69.89;98673.53;4978102;28;20041;-82
2022/05/25 06:14:40;;;;;;;8.13;3.50;;;;;;;14.64;68.94;98682.94;5009121;28;20488;-82
2022/05/25 06:19:49;;;;;;;7.45;3.80;;;;;;;14.71;67.16;98680.75;5011869;28;20513;-83
2022/05/25 06:22:15;;;;;;;9.32;3.60;;;;;;;14.78;67.19;98688.50;4997623;28;20041;-83
2022/05/25 06:24:44;;;;;;;5.45;3.97;;;;;;;14.81;66.75;98687.91;5023443;28;20045;-84
2022/05/25 06:27:12;;;;;;;7.07;3.20;;;;;;;14.91;66.38;98687.84;5009315;28;20035;-83
2022/05/25 06:29:39;;;;;;;4.65;3.58;;;;;;;14.95;66.02;98689.72;5026448;28;20390;-83
2022/05/25 06:32:06;;;;;;;8.68;3.60;;;;;;;14.85;65.99;98692.44;5026725;28;20037;-84
2022/05/25 06:34:32;;;;;;;4.63;3.45;;;;;;;14.95;65.70;98689.72;5015181;28;20026;-83
2022/05/25 06:36:58;;;;;;;7.65;3.90;;;;;;;14.98;65.96;98694.50;4977196;28;20045;-84
2022/05/25 06:39:24;;;;;;;4.63;2.95;;;;;;;14.93;65.79;98685.69;5021517;28;20026;-83
2022/05/25 06:41:49;;;;;;;7.40;3.85;;;;;;;14.94;65.67;98698.03;5006284;28;20543;-83
2022/05/25 06:44:17;;;;;;;9.98;3.88;;;;;;;15.00;65.03;98689.66;4993564;28;20033;-83
2022/05/25 06:46:42;;;;;;;12.02;3.78;;;;;;;15.14;65.00;98699.75;4998726;28;20034;-83
2022/05/25 06:49:07;;;;;;;4.50;3.63;;;;;;;15.05;64.89;98683.44;5013871;28;20053;-83
2022/05/25 06:51:35;;;;;;;8.00;4.03;;;;;;;15.21;64.51;98697.56;4984951;28;20490;-84
2022/05/25 06:54:02;;;;;;;6.65;4.07;;;;;;;15.18;64.30;98700.81;5027312;28;20030;-83
2022/05/25 06:56:28;;;;;;;10.18;3.75;;;;;;;15.06;65.22;98700.38;5011982;28;20037;-84
2022/05/25 06:58:55;;;;;;;5.43;3.92;;;;;;;15.10;65.13;98702.22;5012619;28;20037;-83
2022/05/25 07:01:22;;;;;;;10.45;4.35;;;;;;;15.16;64.76;98697.63;5020033;28;20029;-83
2022/05/25 07:03:48;;;;;;;8.38;3.72;;;;;;;15.23;64.44;98696.19;5009539;28;20076;-83
2022/05/25 07:06:15;;;;;;;5.40;4.15;;;;;;;15.46;64.37;98713.50;5011092;28;20113;-83
2022/05/25 07:08:41;;;;;;;5.32;4.45;;;;;;;15.23;64.38;98709.63;5020593;28;20049;-83
2022/05/25 07:11:07;;;;;;;6.97;4.50;;;;;;;15.24;64.21;98723.91;5013905;28;20512;-82
2022/05/25 07:13:32;;;;;;;7.75;4.90;;;;;;;15.43;63.52;98722.09;5019397;28;20041;-84
2022/05/25 07:16:04;;;;;;;6.28;4.88;;;;;;;15.41;63.69;98718.91;5020404;28;20116;-83
2022/05/25 07:18:30;;;;;;;7.00;4.28;;;;;;;15.43;63.65;98714.88;4997370;28;20469;-84
2022/05/25 07:21:10;;;;;;;9.52;4.43;;;;;;;15.50;63.89;98725.31;5024093;28;20024;-83
2022/05/25 07:23:38;;;;;;;6.40;4.55;;;;;;;15.57;63.78;98726.56;5015169;28;20088;-83
2022/05/25 07:26:06;;;;;;;9.25;4.47;;;;;;;15.54;63.61;98718.28;5016757;28;20498;-84
2022/05/25 07:28:33;;;;;;;8.13;5.13;;;;;;;15.57;63.21;98707.72;5008806;28;20040;-83
2022/05/25 07:31:02;;;;;;;8.82;3.92;;;;;;;15.64;63.30;98713.59;5016553;28;20484;-83
2022/05/25 07:33:28;;;;;;;5.30;3.67;;;;;;;15.64;63.33;98708.22;5012156;28;20477;-83
2022/05/25 07:35:54;;;;;;;8.50;3.63;;;;;;;15.58;64.15;98730.88;5017372;28;20107;-83
2022/05/25 07:38:20;;;;;;;5.13;3.50;;;;;;;15.69;63.91;98718.94;4996124;28;20125;-83
2022/05/25 07:40:46;;;;;;;4.90;3.60;;;;;;;15.69;64.08;98715.44;5014972;28;20483;-83
2022/05/25 07:43:16;;;;;;;4.50;3.60;;;;;;;15.77;63.41;98717.50;5015531;28;20033;-83
2022/05/25 07:45:44;;;;;;;5.53;3.75;;;;;;;15.83;64.07;98734.41;5012865;28;20132;-83
2022/05/25 07:48:09;;;;;;;6.03;3.53;;;;;;;15.84;63.58;98722.53;4982036;28;20551;-83
2022/05/25 07:50:34;;;;;;;5.63;3.85;;;;;;;15.94;63.89;98743.97;4996229;28;20129;-83
2022/05/25 07:53:01;;;;;;;7.00;3.92;;;;;;;16.01;63.53;98731.00;5012507;28;20037;-83
2022/05/25 07:55:26;;;;;;;8.13;4.47;;;;;;;15.85;63.31;98722.28;5010076;28;20513;-83
2022/05/25 07:57:52;;;;;;;7.65;4.30;;;;;;;15.94;62.86;98723.25;4976734;28;20041;-83
2022/05/25 08:00:25;;;;;;;11.35;3.35;;;;;;;16.21;63.30;98739.63;5014839;28;20527;-84
2022/05/25 08:05:43;;;;;;;11.60;3.17;;;;;;;16.19;62.18;98731.03;5007367;28;20450;-83
2022/05/25 08:08:15;;;;;;;6.68;3.28;;;;;;;16.38;61.73;98749.94;5011362;28;20444;-83
2022/05/25 08:10:44;;;;;;;5.55;3.55;;;;;;;16.45;61.90;98745.00;5005302;28;20030;-83
2022/05/25 08:13:14;;;;;;;11.48;3.85;;;;;;;16.40;61.00;98740.47;5006420;28;20038;-83
2022/05/25 08:15:42;;;;;;;9.43;3.65;;;;;;;16.55;60.64;98728.75;5011430;28;20030;-83
2022/05/25 08:18:12;;;;;;;6.22;3.13;;;;;;;16.74;60.80;98737.63;5004973;28;20034;-83
2022/05/25 08:20:38;;;;;;;5.07;3.30;;;;;;;16.87;60.53;98738.78;5006806;28;20040;-83
2022/05/25 08:23:09;;;;;;;9.55;3.65;;;;;;;16.77;60.19;98734.38;5012058;28;20033;-83
2022/05/25 08:25:35;;;;;;;9.75;3.05;;;;;;;17.01;59.79;98718.91;5006936;28;20026;-84
2022/05/25 08:28:01;;;;;;;6.30;2.92;;;;;;;17.25;58.57;98719.56;4990784;28;20026;-83
2022/05/25 08:30:28;;;;;;;6.28;2.90;;;;;;;17.24;58.57;98728.78;5025769;28;20099;-83
2022/05/25 08:32:53;;;;;;;13.85;3.13;;;;;;;17.09;58.43;98734.41;5010198;28;20052;-83
2022/05/25 08:35:19;;;;;;;12.07;2.90;;;;;;;16.95;59.08;98744.31;4992716;28;20041;-82
2022/05/25 08:37:44;;;;;;;6.18;2.67;;;;;;;17.02;59.49;98717.00;5015102;28;20037;-82
2022/05/25 08:40:13;;;;;;;8.82;3.15;;;;;;;17.16;59.07;98729.47;5003373;28;20026;-82
2022/05/25 08:43:04;;;;;;;7.65;2.28;;;;;;;17.19;58.83;98722.66;5010401;28;20375;-83
2022/05/25 08:45:50;;;;;;;9.45;3.10;;;;;;;17.27;59.19;98724.69;5009015;28;20200;-82
2022/05/25 08:48:18;;;;;;;9.80;2.80;;;;;;;17.34;59.36;98722.44;5008878;28;20088;-82
2022/05/25 08:50:49;;;;;;;10.00;3.00;;;;;;;17.28;59.94;98702.00;5025546;28;20075;-82
2022/05/25 08:53:17;;;;;;;4.63;3.10;;;;;;;17.31;59.62;98712.22;5009020;28;20032;-82
2022/05/25 08:56:07;;;;;;;7.13;3.10;;;;;;;17.34;59.59;98717.03;5007680;28;20178;-82
2022/05/25 08:58:49;;;;;;;5.40;2.28;;;;;;;17.34;59.66;98721.63;5020613;28;20117;-82
2022/05/25 09:01:25;;;;;;;3.08;2.15;;;;;;;17.27;60.14;98719.31;5009475;28;20054;-81
2022/05/25 09:04:09;;;;;;;4.95;2.67;;;;;;;17.30;59.35;98732.19;5010756;28;20092;-82
2022/05/25 09:06:49;;;;;;;5.72;3.00;;;;;;;17.37;59.49;98731.81;5006744;28;20053;-81
2022/05/25 09:09:37;;;;;;;6.32;2.28;;;;;;;17.34;59.31;98729.72;5007707;28;20036;-81
2022/05/25 09:12:14;;;;;;;6.28;2.03;;;;;;;17.35;59.87;98737.50;5006436;28;20030;-81
2022/05/25 09:14:46;;;;;;;5.18;2.45;;;;;;;17.38;59.90;98736.94;5009092;28;20040;-82
2022/05/25 09:17:25;;;;;;;3.92;2.30;;;;;;;17.34;59.78;98729.72;5010317;28;20088;-81
2022/05/25 09:19:51;;;;;;;7.40;2.42;;;;;;;17.31;59.76;98720.31;5023973;28;20041;-81
2022/05/25 09:22:23;;;;;;;4.70;2.45;;;;;;;17.33;60.06;98723.53;4991073;28;20025;-82
2022/05/25 09:24:51;;;;;;;2.78;1.80;;;;;;;17.35;59.70;98726.72;5008686;28;20040;-81
2022/05/25 09:27:21;;;;;;;7.25;2.45;;;;;;;17.40;60.11;98726.66;5005072;28;20092;-82
2022/05/25 09:29:46;;;;;;;4.43;2.30;;;;;;;17.36;59.29;98714.84;5004998;28;20022;-81
2022/05/25 09:32:32;;;;;;;2.78;1.98;;;;;;;17.52;59.04;98732.38;5024092;28;20029;-82
2022/05/25 09:35:02;;;;;;;3.25;2.08;;;;;;;17.69;58.74;98726.44;5021169;28;20038;-82
2022/05/25 09:37:34;;;;;;;2.88;1.85;;;;;;;17.76;58.81;98716.03;5004995;28;20072;-82
2022/05/25 09:40:31;;;;;;;4.22;1.88;;;;;;;17.92;58.15;98718.19;5008910;28;20069;-81
2022/05/25 09:42:57;;;;;;;3.50;1.90;;;;;;;18.08;58.39;98717.88;5001264;28;20041;-82
2022/05/25 09:45:43;;;;;;;2.67;1.67;;;;;;;18.15;57.68;98715.59;5010493;28;20515;-82
2022/05/25 09:48:26;;;;;;;5.28;2.33;;;;;;;18.17;57.98;98710.69;5009427;28;20041;-82
2022/05/25 09:51:04;;;;;;;5.35;1.90;;;;;;;18.24;57.89;98716.50;5010566;28;20029;-82
2022/05/25 09:53:39;;;;;;;6.78;2.75;;;;;;;18.09;57.39;98705.97;5005692;28;20057;-81
2022/05/25 09:56:23;;;;;;;3.47;2.03;;;;;;;18.19;57.14;98706.59;5005000;28;20087;-81
2022/05/25 09:58:56;;;;;;;1.92;1.63;;;;;;;18.10;56.99;98696.78;5021000;28;20332;-81
2022/05/25 10:01:31;;;;;;;4.20;1.77;;;;;;;18.18;57.23;98706.84;5004040;28;20431;-81
2022/05/25 10:03:58;;;;;;;2.05;1.77;;;;;;;18.13;57.34;98698.88;5010235;28;20022;-81
2022/05/25 10:06:29;;;;;;;3.80;1.55;;;;;;;18.18;57.20;98717.66;5011689;28;20030;-81
2022/05/25 10:09:11;;;;;;;3.67;1.67;;;;;;;18.13;57.87;98721.28;5007689;28;20033;-81
2022/05/25 10:11:41;;;;;;;4.18;2.25;;;;;;;18.05;58.02;98729.28;5008585;28;20368;-81
2022/05/25 10:14:17;;;;;;;3.55;1.73;;;;;;;17.95;58.52;98730.28;5019265;28;20022;-82
2022/05/25 10:16:43;;;;;;;4.05;1.70;;;;;;;17.84;59.96;98731.56;5003230;28;20512;-81
2022/05/25 10:19:12;;;;;;;4.53;2.00;;;;;;;17.73;60.76;98728.25;5007215;28;20046;-82
2022/05/25 10:21:38;;;;;;;8.18;2.22;;;;;;;17.61;61.99;98717.13;5009415;28;20034;-81
2022/05/25 10:24:15;;;;;;;4.38;1.85;;;;;;;17.53;61.87;98712.41;4985703;28;20031;-81
2022/05/25 10:26:50;;;;;;;3.55;1.90;;;;;;;17.61;62.06;98719.00;5002533;28;20026;-81
2022/05/25 10:38:27;;;;;;;2.83;1.60;;;;;;;17.71;62.30;98706.13;5002607;28;20092;-81
2022/05/25 10:40:54;;;;;;;3.13;1.80;;;;;;;17.75;62.12;98717.16;5014720;28;20381;-82
2022/05/25 10:43:28;;;;;;;5.53;1.90;;;;;;;17.77;62.26;98707.66;5009017;28;20030;-81
2022/05/25 10:45:55;;;;;;;3.10;1.83;;;;;;;17.87;62.49;98706.66;5006345;28;20132;-82
2022/05/25 10:48:25;;;;;;;3.80;2.13;;;;;;;17.96;62.91;98702.97;5005938;28;20068;-82
2022/05/25 10:50:58;;;;;;;2.00;1.80;;;;;;;18.16;62.70;98709.88;5005894;28;20038;-81
2022/05/25 10:56:53;;;;;;;2.55;1.92;;;;;;;18.48;61.45;98696.25;5017515;28;20104;-82
2022/05/25 10:59:28;;;;;;;2.78;1.60;;;;;;;18.70;60.69;98709.81;5007153;28;20030;-82
2022/05/25 11:02:03;;;;;;;4.25;2.10;;;;;;;18.85;60.04;98710.59;5005110;28;20053;-81
2022/05/25 11:04:41;;;;;;;2.67;1.50;;;;;;;18.87;59.37;98711.88;5009138;28;20089;-81
2022/05/25 11:07:28;;;;;;;2.42;1.70;;;;;;;18.86;59.21;98706.78;5008959;28;20156;-81
2022/05/25 11:10:04;;;;;;;3.35;2.08;;;;;;;18.81;59.37;98710.38;5007656;28;20064;-82
2022/05/25 11:12:35;;;;;;;;;;;;;;;18.70;59.43;98707.13;5007024;28;20062;-81
2022/05/25 11:15:32;;;;;;;2.90;1.65;;;;;;;18.70;58.76;98698.19;5013194;28;19928;-83
2022/05/25 11:18:06;;;;;;;5.75;1.90;;;;;;;18.61;59.44;98700.03;5009514;28;20038;-82
2022/05/25 11:20:59;;;;;;;4.05;1.80;;;;;;;18.49;59.63;98697.06;5005827;28;20064;-82
2022/05/25 11:23:45;;;;;;;2.78;1.40;;;;;;;18.39;60.13;98700.72;5009974;28;20029;-81
2022/05/25 11:26:46;;;;;;;4.47;1.60;;;;;;;18.38;59.02;98693.75;5008535;28;20421;-82
2022/05/25 11:29:39;;;;;;;4.13;2.08;;;;;;;18.51;58.49;98692.94;5013164;28;20262;-82
2022/05/25 11:32:17;;;;;;;1.80;1.70;;;;;;;18.73;58.46;98697.59;5010796;28;20489;-82
2022/05/25 11:35:04;;;;;;;2.35;1.48;;;;;;;18.99;58.03;98698.63;5009620;28;20042;-82
2022/05/25 11:37:54;;;;;;;2.42;1.60;;;;;;;19.27;57.33;98691.97;5010467;28;20040;-83
2022/05/25 11:40:47;;;;;;;4.47;1.42;;;;;;;19.55;56.27;98698.06;5023551;28;20026;-82
2022/05/25 11:43:33;;;;;;;2.55;1.73;;;;;;;19.66;56.14;98679.66;5009521;28;20385;-82
2022/05/25 11:46:21;;;;;;;2.88;1.48;;;;;;;19.92;55.15;98672.44;5006849;28;20147;-82
2022/05/25 11:49:09;;;;;;;3.65;1.50;;;;;;;20.19;55.01;98685.75;5028478;28;20487;-82
2022/05/25 11:52:03;;;;;;;1.45;1.35;;;;;;;20.49;53.64;98678.66;5030123;28;20090;-82
2022/05/25 11:54:54;;;;;;;2.90;1.65;;;;;;;20.59;53.60;98690.03;5025379;28;20129;-83
2022/05/25 11:57:30;;;;;;;6.60;1.55;;;;;;;20.72;53.16;98693.69;5003927;28;20026;-82
2022/05/25 12:00:05;;;;;;;2.15;1.40;;;;;;;20.67;53.45;98705.50;5005415;28;20107;-82
2022/05/25 12:02:57;;;;;;;2.30;1.38;;;;;;;20.77;52.04;98694.31;5013088;28;20124;-82
2022/05/25 12:05:40;;;;;;;2.88;1.20;;;;;;;20.95;50.76;98691.63;4997789;28;20061;-83
2022/05/25 12:08:18;;;;;;;1.10;1.10;;;;;;;21.16;49.35;98700.75;5007126;28;20026;-82
2022/05/25 12:10:45;;;;;;;1.45;1.13;;;;;;;21.26;49.40;98697.69;5005843;28;20076;-82
2022/05/25 12:13:21;;;;;;;1.25;1.15;;;;;;;21.40;48.82;98698.31;5005538;28;20050;-83
2022/05/25 12:15:55;;;;;;;1.98;1.42;;;;;;;21.51;48.33;98705.00;5009132;28;20497;-82
2022/05/25 12:18:39;;;;;;;2.25;1.27;;;;;;;21.63;47.51;98688.81;5027451;28;20025;-82